createdAt,value
2023-03-05T00:00:40.420Z,98066.50
2023-03-05T00:01:43.107Z,98072.94
2023-03-05T00:02:44.740Z,98065.59
2023-03-05T00:03:47.502Z,98071.78
2023-03-05T00:04:49.127Z,98070.75
2023-03-05T00:05:57.241Z,98070.75
2023-03-05T00:06:58.850Z,98070.72
2023-03-05T00:08:01.457Z,98076.72
2023-03-05T00:09:03.441Z,98071.34
2023-03-05T00:10:07.128Z,98069.44
2023-03-05T00:11:10.155Z,98070.31
2023-03-05T00:12:12.877Z,98070.00
2023-03-05T00:13:14.496Z,98072.13
2023-03-05T00:14:17.121Z,98073.78
2023-03-05T00:15:18.930Z,98070.75
2023-03-05T00:16:21.675Z,98072.66
2023-03-05T00:17:23.491Z,98070.63
2023-03-05T00:18:26.229Z,98071.94
2023-03-05T00:19:27.867Z,98072.19
2023-03-05T00:20:30.449Z,98077.03
2023-03-05T00:21:34.355Z,98075.41
2023-03-05T00:22:37.832Z,98074.47
2023-03-05T00:23:39.445Z,98074.22
2023-03-05T00:24:42.100Z,98071.25
2023-03-05T00:25:44.285Z,98072.03
2023-03-05T00:26:47.020Z,98077.16
2023-03-05T00:27:48.625Z,98062.44
2023-03-05T00:28:52.355Z,98077.91
2023-03-05T00:29:54.002Z,98070.31
2023-03-05T00:31:00.059Z,98071.34
2023-03-05T00:32:01.792Z,98068.31
2023-03-05T00:33:04.604Z,98070.47
2023-03-05T00:34:07.501Z,98071.38
2023-03-05T00:35:11.022Z,98070.31
2023-03-05T00:36:12.685Z,98068.75
2023-03-05T00:37:16.602Z,98066.09
2023-03-05T00:38:18.218Z,98065.50
2023-03-05T00:39:20.941Z,98060.72
2023-03-05T00:40:22.759Z,98066.88
2023-03-05T00:41:25.385Z,98058.28
2023-03-05T00:42:27.016Z,98057.69
2023-03-05T00:43:29.610Z,98060.63
2023-03-05T00:44:31.224Z,98062.19
2023-03-05T00:45:34.142Z,98061.34
2023-03-05T00:46:35.830Z,98058.75
2023-03-05T00:47:38.477Z,98056.44
2023-03-05T00:48:40.067Z,98055.69
2023-03-05T00:49:42.635Z,98054.84
2023-03-05T00:50:44.528Z,98061.59
2023-03-05T00:51:47.163Z,98053.84
2023-03-05T00:52:50.157Z,98054.06
2023-03-05T00:53:52.794Z,98051.88
2023-03-05T00:54:54.408Z,98055.38
2023-03-05T00:55:57.180Z,98051.91
2023-03-05T00:56:59.754Z,98051.06
2023-03-05T00:58:01.401Z,98050.28
2023-03-05T00:59:04.014Z,98050.59
2023-03-05T01:00:06.799Z,98051.53
2023-03-05T01:01:09.442Z,98059.44
2023-03-05T01:02:11.047Z,98056.84
2023-03-05T01:03:13.685Z,98052.47
2023-03-05T01:04:15.371Z,98053.81
2023-03-05T01:05:18.010Z,98052.94
2023-03-05T01:06:19.817Z,98052.41
2023-03-05T01:07:22.407Z,98056.91
2023-03-05T01:08:25.532Z,98050.78
2023-03-05T01:09:28.276Z,98045.69
2023-03-05T01:10:30.188Z,98058.94
2023-03-05T01:11:32.942Z,98054.25
2023-03-05T01:12:34.568Z,98056.84
2023-03-05T01:13:37.449Z,98044.72
2023-03-05T01:14:39.061Z,98051.22
2023-03-05T01:15:41.636Z,98057.88
2023-03-05T01:16:43.346Z,98056.72
2023-03-05T01:17:45.922Z,98053.22
2023-03-05T01:18:47.539Z,98052.44
2023-03-05T01:19:50.115Z,98050.59
2023-03-05T01:20:51.723Z,98052.25
2023-03-05T01:21:55.108Z,98049.16
2023-03-05T01:22:58.909Z,98053.72
2023-03-05T01:24:02.943Z,98051.31
2023-03-05T01:25:05.037Z,98049.22
2023-03-05T01:26:08.492Z,98049.16
2023-03-05T01:27:10.166Z,98052.41
2023-03-05T01:28:12.998Z,98047.84
2023-03-05T01:29:14.602Z,98042.69
2023-03-05T01:30:17.373Z,98046.97
2023-03-05T01:31:19.010Z,98042.91
2023-03-05T01:32:21.689Z,98039.38
2023-03-05T01:33:23.337Z,98038.34
2023-03-05T01:34:25.914Z,98029.78
2023-03-05T01:35:27.695Z,98036.00
2023-03-05T01:36:30.300Z,98043.28
2023-03-05T01:37:32.108Z,98037.69
2023-03-05T01:38:34.688Z,98029.88
2023-03-05T01:39:37.684Z,98031.88
2023-03-05T01:40:40.276Z,98033.19
2023-03-05T01:41:41.902Z,98027.56
2023-03-05T01:42:46.963Z,98022.16
2023-03-05T01:43:48.589Z,98025.09
2023-03-05T01:45:04.957Z,98017.50
2023-03-05T01:46:31.873Z,98021.31
2023-03-05T01:47:34.468Z,98019.66
2023-03-05T01:48:36.089Z,98020.97
2023-03-05T01:49:39.241Z,98021.25
2023-03-05T01:50:40.910Z,98015.63
2023-03-05T01:51:46.829Z,98018.28
2023-03-05T01:52:51.399Z,98029.53
2023-03-05T01:53:53.409Z,98023.09
2023-03-05T01:54:58.038Z,98010.81
2023-03-05T01:55:59.640Z,98016.44
2023-03-05T01:57:05.701Z,98014.50
2023-03-05T01:58:09.313Z,98004.47
2023-03-05T01:59:11.960Z,98007.41
2023-03-05T02:00:15.854Z,98004.06
2023-03-05T02:01:17.672Z,98002.47
2023-03-05T02:02:21.972Z,98008.41
2023-03-05T02:03:23.617Z,98001.44
2023-03-05T02:04:30.009Z,97992.97
2023-03-05T02:05:32.547Z,97996.41
2023-03-05T02:06:35.144Z,97997.88
2023-03-05T02:07:37.941Z,97992.31
2023-03-05T02:08:40.516Z,97993.94
2023-03-05T02:09:42.233Z,97989.59
2023-03-05T02:10:46.956Z,97982.09
2023-03-05T02:11:48.572Z,97987.16
2023-03-05T02:12:51.507Z,97982.84
2023-03-05T02:13:53.123Z,97986.13
2023-03-05T02:14:59.449Z,97981.53
2023-03-05T02:16:01.358Z,97975.69
2023-03-05T02:17:03.924Z,97968.81
2023-03-05T02:18:05.872Z,97974.88
2023-03-05T02:19:10.634Z,97963.28
2023-03-05T02:20:13.812Z,97968.19
2023-03-05T02:21:19.476Z,97966.84
2023-03-05T02:22:21.884Z,97963.63
2023-03-05T02:23:25.721Z,97962.03
2023-03-05T02:24:34.671Z,97959.81
2023-03-05T02:25:37.274Z,97961.84
2023-03-05T02:26:38.892Z,97958.44
2023-03-05T02:27:41.474Z,97953.38
2023-03-05T02:28:44.576Z,97953.69
2023-03-05T02:29:47.420Z,97952.56
2023-03-05T02:30:49.145Z,97956.66
2023-03-05T02:31:51.814Z,97949.22
2023-03-05T02:32:53.443Z,97951.28
2023-03-05T02:33:56.937Z,97945.88
2023-03-05T02:34:58.534Z,97946.69
2023-03-05T02:36:01.244Z,97950.06
2023-03-05T02:37:04.686Z,97943.66
2023-03-05T02:38:07.300Z,97945.31
2023-03-05T02:39:09.696Z,97947.22
2023-03-05T02:40:13.338Z,97941.59
2023-03-05T02:41:15.316Z,97937.50
2023-03-05T02:42:17.896Z,97946.56
2023-03-05T02:43:19.514Z,97937.06
2023-03-05T02:44:22.094Z,97933.53
2023-03-05T02:45:23.749Z,97939.75
2023-03-05T02:46:26.558Z,97943.06
2023-03-05T02:47:28.203Z,97941.13
2023-03-05T02:48:30.785Z,97935.47
2023-03-05T02:49:33.363Z,97939.81
2023-03-05T02:50:35.004Z,97933.75
2023-03-05T02:51:37.764Z,97935.97
2023-03-05T02:52:40.728Z,97940.22
2023-03-05T02:53:43.322Z,97942.25
2023-03-05T02:54:44.934Z,97935.25
2023-03-05T02:55:48.101Z,97940.13
2023-03-05T02:56:49.941Z,97937.69
2023-03-05T02:57:52.542Z,97942.25
2023-03-05T02:58:54.156Z,97933.16
2023-03-05T02:59:56.803Z,97932.31
2023-03-05T03:00:58.450Z,97931.25
2023-03-05T03:02:01.117Z,97925.63
2023-03-05T03:03:02.769Z,97919.41
2023-03-05T03:04:05.516Z,97918.03
2023-03-05T03:05:08.072Z,97925.06
2023-03-05T03:06:10.676Z,97926.16
2023-03-05T03:07:12.444Z,97922.19
2023-03-05T03:08:16.913Z,97920.03
2023-03-05T03:09:18.547Z,97927.56
2023-03-05T03:10:21.276Z,97921.16
2023-03-05T03:11:22.903Z,97925.25
2023-03-05T03:12:25.524Z,97922.03
2023-03-05T03:13:27.135Z,97917.41
2023-03-05T03:14:32.523Z,97917.19
2023-03-05T03:15:34.774Z,97911.19
2023-03-05T03:16:37.387Z,97912.56
2023-03-05T03:17:39.110Z,97911.72
2023-03-05T03:18:41.778Z,97912.00
2023-03-05T03:19:43.425Z,97910.16
2023-03-05T03:20:46.042Z,97904.72
2023-03-05T03:21:49.859Z,97905.06
2023-03-05T03:22:52.553Z,97910.50
2023-03-05T03:23:55.543Z,97902.28
2023-03-05T03:24:58.129Z,97901.25
2023-03-05T03:25:59.765Z,97897.41
2023-03-05T03:27:02.469Z,97906.31
2023-03-05T03:28:04.212Z,97900.41
2023-03-05T03:29:06.800Z,97899.09
2023-03-05T03:30:09.657Z,97902.53
2023-03-05T03:31:12.350Z,97901.72
2023-03-05T03:32:14.036Z,97896.44
2023-03-05T03:33:18.296Z,97896.44
2023-03-05T03:34:20.052Z,97894.78
2023-03-05T03:35:22.818Z,97893.09
2023-03-05T03:36:24.466Z,97905.50
2023-03-05T03:37:27.211Z,97898.75
2023-03-05T03:38:28.850Z,97899.78
2023-03-05T03:39:32.792Z,97898.66
2023-03-05T03:40:35.746Z,97900.00
2023-03-05T03:41:38.438Z,97898.97
2023-03-05T03:42:40.044Z,97891.13
2023-03-05T03:43:42.745Z,97894.47
2023-03-05T03:44:44.390Z,97887.50
2023-03-05T03:45:47.031Z,97889.25
2023-03-05T03:46:49.067Z,97888.16
2023-03-05T03:47:51.748Z,97886.56
2023-03-05T03:48:53.391Z,97882.53
2023-03-05T03:49:55.993Z,97875.06
2023-03-05T03:50:57.620Z,97881.25
2023-03-05T03:52:00.431Z,97877.28
2023-03-05T03:53:02.032Z,97870.59
2023-03-05T03:54:05.230Z,97869.00
2023-03-05T03:55:09.166Z,97868.50
2023-03-05T03:56:11.748Z,97870.84
2023-03-05T03:57:13.363Z,97868.25
2023-03-05T03:58:16.016Z,97870.09
2023-03-05T03:59:17.693Z,97861.78
2023-03-05T04:00:20.842Z,97862.03
2023-03-05T04:01:22.480Z,97863.94
2023-03-05T04:02:25.162Z,97860.88
2023-03-05T04:03:26.834Z,97862.00
2023-03-05T04:04:30.415Z,97863.63
2023-03-05T04:05:32.083Z,97857.78
2023-03-05T04:06:34.808Z,97857.75
2023-03-05T04:07:36.426Z,97844.00
2023-03-05T04:08:39.015Z,97848.81
2023-03-05T04:09:40.756Z,97849.88
2023-03-05T04:10:44.712Z,97844.75
2023-03-05T04:11:46.345Z,97838.91
2023-03-05T04:12:48.952Z,97852.06
2023-03-05T04:13:50.658Z,97845.91
2023-03-05T04:14:53.434Z,97846.75
2023-03-05T04:15:55.180Z,97840.50
2023-03-05T04:16:57.812Z,97833.69
2023-03-05T04:17:59.513Z,97839.38
2023-03-05T04:19:02.099Z,97839.88
2023-03-05T04:20:05.419Z,97833.25
2023-03-05T04:21:08.022Z,97836.75
2023-03-05T04:22:10.597Z,97832.69
2023-03-05T04:23:13.183Z,97834.28
2023-03-05T04:24:15.105Z,97840.91
2023-03-05T04:25:18.028Z,97836.16
2023-03-05T04:26:20.991Z,97834.28
2023-03-05T04:27:23.575Z,97839.72
2023-03-05T04:28:25.211Z,97825.69
2023-03-05T04:29:27.940Z,97826.56
2023-03-05T04:30:29.625Z,97826.53
2023-03-05T04:31:32.247Z,97821.66
2023-03-05T04:32:33.904Z,97819.97
2023-03-05T04:33:36.572Z,97828.09
2023-03-05T04:34:38.213Z,97815.53
2023-03-05T04:35:40.848Z,97823.88
2023-03-05T04:36:42.524Z,97817.22
2023-03-05T04:37:45.142Z,97817.69
2023-03-05T04:38:47.824Z,97819.25
2023-03-05T04:39:49.470Z,97818.94
2023-03-05T04:40:52.102Z,97815.72
2023-03-05T04:41:55.073Z,97808.78
2023-03-05T04:42:57.650Z,97809.25
2023-03-05T04:43:59.265Z,97808.72
2023-03-05T04:45:01.853Z,97808.78
2023-03-05T04:46:03.652Z,97811.28
2023-03-05T04:47:06.477Z,97814.44
2023-03-05T04:48:08.151Z,97809.25
2023-03-05T04:49:10.750Z,97803.97
2023-03-05T04:50:12.640Z,97814.44
2023-03-05T04:51:15.264Z,97805.91
2023-03-05T04:52:16.867Z,97800.81
2023-03-05T04:53:19.466Z,97798.97
2023-03-05T04:54:21.097Z,97798.16
2023-03-05T04:55:23.695Z,97798.97
2023-03-05T04:56:25.461Z,97795.00
2023-03-05T04:57:29.454Z,97793.09
2023-03-05T04:58:31.067Z,97794.38
2023-03-05T04:59:33.696Z,97794.94
2023-03-05T05:00:35.306Z,97785.81
2023-03-05T05:01:38.767Z,97793.53
2023-03-05T05:02:40.830Z,97798.06
2023-03-05T05:03:43.447Z,97792.69
2023-03-05T05:04:45.872Z,97790.66
2023-03-05T05:05:55.311Z,97791.16
2023-03-05T05:06:57.209Z,97787.94
2023-03-05T05:07:59.806Z,97790.34
2023-03-05T05:09:01.444Z,97780.41
2023-03-05T05:10:04.419Z,97781.19
2023-03-05T05:11:06.876Z,97779.56
2023-03-05T05:12:10.542Z,97774.47
2023-03-05T05:13:13.521Z,97773.22
2023-03-05T05:14:16.426Z,97780.03
2023-03-05T05:15:18.171Z,97771.66
2023-03-05T05:16:20.828Z,97769.22
2023-03-05T05:17:22.613Z,97771.06
2023-03-05T05:18:25.309Z,97766.97
2023-03-05T05:19:27.029Z,97768.00
2023-03-05T05:20:30.014Z,97767.00
2023-03-05T05:21:31.749Z,97767.53
2023-03-05T05:22:34.473Z,97769.94
2023-03-05T05:23:36.231Z,97771.31
2023-03-05T05:24:38.842Z,97761.28
2023-03-05T05:25:40.515Z,97761.34
2023-03-05T05:26:43.119Z,97763.72
2023-03-05T05:27:45.883Z,97761.47
2023-03-05T05:28:49.834Z,97758.00
2023-03-05T05:29:52.788Z,97769.13
2023-03-05T05:30:55.540Z,97762.72
2023-03-05T05:31:57.378Z,97750.41
2023-03-05T05:33:00.189Z,97761.03
2023-03-05T05:34:01.901Z,97764.50
2023-03-05T05:35:05.657Z,97760.47
2023-03-05T05:36:08.995Z,97755.19
2023-03-05T05:37:11.619Z,97761.91
2023-03-05T05:38:13.364Z,97763.28
2023-03-05T05:39:15.966Z,97753.34
2023-03-05T05:40:17.637Z,97755.00
2023-03-05T05:41:20.298Z,97758.72
2023-03-05T05:42:22.841Z,97755.28
2023-03-05T05:43:25.608Z,97758.56
2023-03-05T05:44:28.592Z,97758.47
2023-03-05T05:45:31.302Z,97764.38
2023-03-05T05:46:33.119Z,97764.97
2023-03-05T05:47:35.786Z,97751.31
2023-03-05T05:48:37.719Z,97760.97
2023-03-05T05:49:40.339Z,97750.44
2023-03-05T05:50:42.129Z,97751.03
2023-03-05T05:51:44.759Z,97747.31
2023-03-05T05:52:46.439Z,97752.16
2023-03-05T05:53:49.268Z,97749.28
2023-03-05T05:54:51.884Z,97744.63
2023-03-05T05:55:53.513Z,97756.94
2023-03-05T05:56:56.141Z,97758.59
2023-03-05T05:57:57.771Z,97759.09
2023-03-05T05:59:00.604Z,97753.13
2023-03-05T06:00:04.520Z,97765.50
2023-03-05T06:01:13.391Z,97758.22
2023-03-05T06:02:15.051Z,97753.44
2023-03-05T06:03:17.696Z,97759.59
2023-03-05T06:04:19.448Z,97752.59
2023-03-05T06:05:22.265Z,97752.34
2023-03-05T06:06:24.374Z,97754.84
2023-03-05T06:07:26.986Z,97755.97
2023-03-05T06:08:28.641Z,97752.19
2023-03-05T06:09:31.309Z,97747.91
2023-03-05T06:10:32.945Z,97747.38
2023-03-05T06:11:35.551Z,97755.91
2023-03-05T06:12:37.184Z,97752.69
2023-03-05T06:13:39.839Z,97753.28
2023-03-05T06:14:41.495Z,97746.97
2023-03-05T06:15:45.465Z,97757.06
2023-03-05T06:16:47.176Z,97754.16
2023-03-05T06:17:49.791Z,97754.16
2023-03-05T06:18:51.490Z,97754.22
2023-03-05T06:19:55.817Z,97751.72
2023-03-05T06:20:57.699Z,97752.00
2023-03-05T06:22:00.301Z,97757.91
2023-03-05T06:23:01.924Z,97752.31
2023-03-05T06:24:04.895Z,97746.41
2023-03-05T06:25:07.810Z,97757.97
2023-03-05T06:26:11.772Z,97757.34
2023-03-05T06:27:13.407Z,97757.91
2023-03-05T06:28:16.016Z,97761.16
2023-03-05T06:29:17.886Z,97763.34
2023-03-05T06:30:20.670Z,97761.81
2023-03-05T06:31:25.613Z,97755.72
2023-03-05T06:32:28.387Z,97759.91
2023-03-05T06:33:30.146Z,97752.16
2023-03-05T06:34:32.798Z,97758.28
2023-03-05T06:35:34.500Z,97757.25
2023-03-05T06:36:37.149Z,97762.31
2023-03-05T06:37:38.794Z,97760.75
2023-03-05T06:38:41.555Z,97750.78
2023-03-05T06:39:43.205Z,97757.16
2023-03-05T06:40:45.901Z,97748.38
2023-03-05T06:41:51.395Z,97753.72
2023-03-05T06:42:54.143Z,97761.25
2023-03-05T06:43:55.824Z,97750.00
2023-03-05T06:44:58.421Z,97751.06
2023-03-05T06:46:03.600Z,97744.84
2023-03-05T06:47:07.682Z,97751.28
2023-03-05T06:48:09.339Z,97750.00
2023-03-05T06:49:11.956Z,97746.19
2023-03-05T06:50:13.791Z,97744.13
2023-03-05T06:51:17.097Z,97743.28
2023-03-05T06:52:18.723Z,97741.38
2023-03-05T06:53:21.363Z,97745.47
2023-03-05T06:54:22.990Z,97744.84
2023-03-05T06:55:25.601Z,97740.03
2023-03-05T06:56:27.551Z,97733.34
2023-03-05T06:57:30.151Z,97737.41
2023-03-05T06:58:31.775Z,97743.81
2023-03-05T06:59:34.381Z,97745.16
2023-03-05T07:00:36.011Z,97735.06
2023-03-05T07:01:38.773Z,97738.78
2023-03-05T07:02:42.833Z,97746.19
2023-03-05T07:03:44.568Z,97741.41
2023-03-05T07:04:47.360Z,97733.41
2023-03-05T07:05:48.990Z,97734.19
2023-03-05T07:06:51.647Z,97735.31
2023-03-05T07:07:53.298Z,97731.75
2023-03-05T07:08:56.050Z,97736.88
2023-03-05T07:09:57.700Z,97732.88
2023-03-05T07:11:00.365Z,97734.00
2023-03-05T07:12:02.024Z,97727.00
2023-03-05T07:13:04.640Z,97724.03
2023-03-05T07:14:06.629Z,97730.19
2023-03-05T07:15:10.150Z,97723.00
2023-03-05T07:16:14.589Z,97718.69
2023-03-05T07:17:17.459Z,97711.97
2023-03-05T07:18:20.466Z,97712.75
2023-03-05T07:19:23.094Z,97712.25
2023-03-05T07:20:24.722Z,97709.81
2023-03-05T07:21:28.467Z,97705.75
2023-03-05T07:22:30.239Z,97707.19
2023-03-05T07:23:32.865Z,97705.25
2023-03-05T07:24:35.482Z,97694.63
2023-03-05T07:25:37.262Z,97697.06
2023-03-05T07:26:39.854Z,97697.31
2023-03-05T07:27:41.792Z,97696.44
2023-03-05T07:28:44.426Z,97700.13
2023-03-05T07:29:47.026Z,97689.94
2023-03-05T07:30:55.890Z,97692.38
2023-03-05T07:31:58.562Z,97687.53
2023-03-05T07:33:00.376Z,97691.94
2023-03-05T07:34:04.508Z,97693.31
2023-03-05T07:35:07.265Z,97692.47
2023-03-05T07:36:10.090Z,97679.31
2023-03-05T07:37:11.748Z,97676.03
2023-03-05T07:38:14.467Z,97681.34
2023-03-05T07:39:17.465Z,97672.84
2023-03-05T07:40:20.253Z,97679.50
2023-03-05T07:41:23.495Z,97676.09
2023-03-05T07:42:26.350Z,97677.97
2023-03-05T07:43:28.021Z,97665.34
2023-03-05T07:44:30.641Z,97672.59
2023-03-05T07:45:32.268Z,97669.81
2023-03-05T07:46:35.060Z,97666.25
2023-03-05T07:47:36.840Z,97668.81
2023-03-05T07:48:39.646Z,97669.34
2023-03-05T07:49:43.613Z,97664.56
2023-03-05T07:50:45.257Z,97660.31
2023-03-05T07:51:47.905Z,97659.75
2023-03-05T07:52:49.558Z,97661.63
2023-03-05T07:53:52.769Z,97651.72
2023-03-05T07:54:54.418Z,97657.09
2023-03-05T07:55:57.050Z,97651.22
2023-03-05T07:56:58.691Z,97644.63
2023-03-05T07:58:01.318Z,97645.84
2023-03-05T07:59:04.799Z,97634.38
2023-03-05T08:00:08.756Z,97643.31
2023-03-05T08:01:13.444Z,97649.94
2023-03-05T08:02:16.544Z,97645.94
2023-03-05T08:03:18.275Z,97640.81
2023-03-05T08:04:20.974Z,97644.78
2023-03-05T08:05:23.989Z,97639.44
2023-03-05T08:06:26.656Z,97641.59
2023-03-05T08:07:29.388Z,97635.09
2023-03-05T08:08:31.043Z,97638.56
2023-03-05T08:09:33.831Z,97645.75
2023-03-05T08:10:36.504Z,97646.31
2023-03-05T08:11:39.419Z,97644.94
2023-03-05T08:12:42.068Z,97642.94
2023-03-05T08:13:43.868Z,97649.13
2023-03-05T08:14:48.438Z,97645.50
2023-03-05T08:15:50.136Z,97652.56
2023-03-05T08:16:53.019Z,97645.44
2023-03-05T08:17:55.637Z,97650.84
2023-03-05T08:18:58.086Z,97650.75
2023-03-05T08:20:05.337Z,97651.06
2023-03-05T08:21:15.478Z,97644.38
2023-03-05T08:22:20.410Z,97635.72
2023-03-05T08:23:22.073Z,97641.75
2023-03-05T08:24:29.353Z,97644.69
2023-03-05T08:25:31.525Z,97645.19
2023-03-05T08:26:35.200Z,97645.00
2023-03-05T08:27:38.969Z,97647.69
2023-03-05T08:28:41.589Z,97643.03
2023-03-05T08:29:43.260Z,97640.28
2023-03-05T08:30:45.991Z,97649.22
2023-03-05T08:31:47.785Z,97637.75
2023-03-05T08:32:50.568Z,97643.97
2023-03-05T08:33:52.889Z,97646.28
2023-03-05T08:34:58.334Z,97648.88
2023-03-05T08:36:00.119Z,97637.56
2023-03-05T08:37:04.132Z,97641.56
2023-03-05T08:38:06.216Z,97648.94
2023-03-05T08:39:09.919Z,97638.38
2023-03-05T08:40:12.592Z,97637.16
2023-03-05T08:41:15.367Z,97635.34
2023-03-05T08:42:17.024Z,97639.97
2023-03-05T08:43:20.368Z,97640.41
2023-03-05T08:44:22.003Z,97635.22
2023-03-05T08:45:24.660Z,97634.66
2023-03-05T08:46:26.417Z,97636.13
2023-03-05T08:47:29.050Z,97634.06
2023-03-05T08:48:31.603Z,97645.28
2023-03-05T08:49:34.224Z,97628.97
2023-03-05T08:50:38.603Z,97634.88
2023-03-05T08:51:41.651Z,97637.03
2023-03-05T08:52:44.700Z,97638.88
2023-03-05T08:53:47.436Z,97635.03
2023-03-05T08:54:49.207Z,97640.34
2023-03-05T08:55:55.324Z,97637.06
2023-03-05T08:56:58.045Z,97636.34
2023-03-05T08:57:59.701Z,97640.13
2023-03-05T08:59:02.743Z,97639.38
2023-03-05T09:00:07.208Z,97636.47
2023-03-05T09:01:08.963Z,97636.94
2023-03-05T09:02:11.914Z,97634.97
2023-03-05T09:03:14.938Z,97639.06
2023-03-05T09:04:17.639Z,97635.81
2023-03-05T09:05:19.553Z,97631.97
2023-03-05T09:06:22.335Z,97641.66
2023-03-05T09:07:24.110Z,97644.13
2023-03-05T09:08:28.887Z,97629.94
2023-03-05T09:09:32.822Z,97648.97
2023-03-05T09:10:34.471Z,97639.31
2023-03-05T09:11:37.275Z,97645.50
2023-03-05T09:12:38.988Z,97641.28
2023-03-05T09:13:41.603Z,97638.06
2023-03-05T09:14:43.266Z,97633.75
2023-03-05T09:15:45.866Z,97641.81
2023-03-05T09:16:47.520Z,97640.78
2023-03-05T09:17:50.242Z,97638.00
2023-03-05T09:18:51.875Z,97642.22
2023-03-05T09:19:54.505Z,97641.91
2023-03-05T09:20:56.376Z,97639.25
2023-03-05T09:21:58.999Z,97645.06
2023-03-05T09:23:00.698Z,97639.84
2023-03-05T09:24:05.004Z,97641.53
2023-03-05T09:25:08.858Z,97642.81
2023-03-05T09:26:12.117Z,97634.00
2023-03-05T09:27:14.749Z,97637.06
2023-03-05T09:28:16.570Z,97636.63
2023-03-05T09:29:19.194Z,97632.13
2023-03-05T09:30:21.249Z,97633.75
2023-03-05T09:31:23.986Z,97638.09
2023-03-05T09:32:25.786Z,97640.06
2023-03-05T09:33:28.478Z,97645.91
2023-03-05T09:34:30.128Z,97638.53
2023-03-05T09:35:35.762Z,97639.69
2023-03-05T09:36:37.494Z,97634.31
2023-03-05T09:37:40.116Z,97645.16
2023-03-05T09:38:41.852Z,97636.94
2023-03-05T09:39:45.829Z,97644.63
2023-03-05T09:40:52.348Z,97639.78
2023-03-05T09:42:12.708Z,97648.22
2023-03-05T09:43:20.802Z,97626.84
2023-03-05T09:44:26.230Z,97645.00
2023-03-05T09:45:28.684Z,97638.38
2023-03-05T09:46:39.016Z,97643.53
2023-03-05T09:47:46.514Z,97651.75
2023-03-05T09:48:52.642Z,97644.72
2023-03-05T09:49:58.127Z,97647.59
2023-03-05T09:51:01.860Z,97650.56
2023-03-05T09:52:06.866Z,97650.03
2023-03-05T09:53:16.667Z,97650.97
2023-03-05T09:54:19.993Z,97649.72
2023-03-05T09:55:26.557Z,97647.47
2023-03-05T09:56:29.646Z,97648.19
2023-03-05T09:57:36.419Z,97645.72
2023-03-05T09:58:38.922Z,97643.53
2023-03-05T09:59:45.431Z,97638.53
2023-03-05T10:00:47.786Z,97642.00
2023-03-05T10:01:50.407Z,97639.28
2023-03-05T10:02:53.621Z,97638.06
2023-03-05T10:03:58.079Z,97632.53
2023-03-05T10:05:03.008Z,97630.03
2023-03-05T10:06:07.984Z,97644.09
2023-03-05T10:07:13.471Z,97632.91
2023-03-05T10:08:16.116Z,97637.41
2023-03-05T10:09:22.275Z,97628.75
2023-03-05T10:10:26.130Z,97629.72
2023-03-05T10:11:38.989Z,97630.88
2023-03-05T10:12:42.709Z,97625.28
2023-03-05T10:13:44.555Z,97617.91
2023-03-05T10:14:47.198Z,97620.19
2023-03-05T10:15:51.984Z,97619.59
2023-03-05T10:17:06.078Z,97633.88
2023-03-05T10:18:14.432Z,97629.34
2023-03-05T10:19:19.869Z,97616.75
2023-03-05T10:20:35.335Z,97632.63
2023-03-05T10:21:40.316Z,97632.50
2023-03-05T10:22:48.093Z,97626.44
2023-03-05T10:23:56.621Z,97631.38
2023-03-05T10:25:11.091Z,97622.25
2023-03-05T10:26:20.530Z,97622.84
2023-03-05T10:27:30.603Z,97639.75
2023-03-05T10:28:39.758Z,97630.84
2023-03-05T10:30:03.630Z,97611.44
2023-03-05T10:31:11.644Z,97617.81
2023-03-05T10:32:20.609Z,97614.09
2023-03-05T10:33:24.536Z,97618.09
2023-03-05T10:34:55.192Z,97607.94
2023-03-05T10:36:16.208Z,97610.31
2023-03-05T10:37:33.195Z,97618.78
2023-03-05T10:38:42.965Z,97602.16
2023-03-05T10:39:56.144Z,97607.44
2023-03-05T10:40:58.917Z,97607.06
2023-03-05T10:42:06.115Z,97607.16
2023-03-05T10:43:14.006Z,97604.72
2023-03-05T10:44:17.109Z,97605.25
2023-03-05T10:45:21.259Z,97586.81
2023-03-05T10:46:23.996Z,97593.00
2023-03-05T10:47:27.810Z,97597.94
2023-03-05T10:48:34.050Z,97602.44
2023-03-05T10:49:38.497Z,97598.38
2023-03-05T10:50:42.861Z,97596.47
2023-03-05T10:51:48.521Z,97599.47
2023-03-05T10:52:52.653Z,97598.75
2023-03-05T10:53:56.848Z,97599.72
2023-03-05T10:54:58.471Z,97602.75
2023-03-05T10:56:03.291Z,97606.53
2023-03-05T10:57:15.919Z,97604.38
2023-03-05T10:58:18.547Z,97599.84
2023-03-05T10:59:20.191Z,97597.56
2023-03-05T11:00:23.699Z,97604.59
2023-03-05T11:01:26.122Z,97596.03
2023-03-05T11:02:28.822Z,97587.44
2023-03-05T11:03:46.804Z,97598.03
2023-03-05T11:04:49.574Z,97592.44
2023-03-05T11:05:51.657Z,97589.03
2023-03-05T11:06:54.307Z,97590.72
2023-03-05T11:07:55.955Z,97593.69
2023-03-05T11:09:21.519Z,97585.22
2023-03-05T11:10:26.061Z,97576.13
2023-03-05T11:11:28.731Z,97575.03
2023-03-05T11:12:32.790Z,97558.41
2023-03-05T11:13:44.003Z,97574.19
2023-03-05T11:14:47.595Z,97569.25
2023-03-05T11:15:59.144Z,97565.13
2023-03-05T11:17:02.014Z,97563.81
2023-03-05T11:18:15.990Z,97568.28
2023-03-05T11:19:20.405Z,97545.34
2023-03-05T11:20:33.112Z,97552.47
2023-03-05T11:21:35.767Z,97548.09
2023-03-05T11:22:37.609Z,97553.69
2023-03-05T11:23:40.228Z,97550.41
2023-03-05T11:24:41.893Z,97544.41
2023-03-05T11:25:58.834Z,97549.78
2023-03-05T11:27:00.660Z,97549.41
2023-03-05T11:28:04.887Z,97539.25
2023-03-05T11:29:17.922Z,97534.94
2023-03-05T11:30:21.129Z,97534.94
2023-03-05T11:31:24.891Z,97536.97
2023-03-05T11:32:27.336Z,97539.50
2023-03-05T11:33:30.147Z,97535.41
2023-03-05T11:34:35.418Z,97527.97
2023-03-05T11:35:38.152Z,97524.41
2023-03-05T11:36:41.755Z,97528.78
2023-03-05T11:37:43.405Z,97525.19
2023-03-05T11:38:46.690Z,97529.06
2023-03-05T11:39:50.154Z,97513.22
2023-03-05T11:40:52.216Z,97519.75
2023-03-05T11:41:56.911Z,97517.19
2023-03-05T11:42:59.724Z,97522.03
2023-03-05T11:44:05.724Z,97515.19
2023-03-05T11:45:10.221Z,97517.28
2023-03-05T11:46:12.851Z,97525.09
2023-03-05T11:47:18.614Z,97521.13
2023-03-05T11:48:22.610Z,97503.03
2023-03-05T11:49:26.606Z,97505.72
2023-03-05T11:50:28.934Z,97508.34
2023-03-05T11:51:33.961Z,97507.16
2023-03-05T11:52:39.812Z,97506.59
2023-03-05T11:53:42.635Z,97508.13
2023-03-05T11:54:53.969Z,97513.81
2023-03-05T11:55:59.008Z,97504.00
2023-03-05T11:57:00.955Z,97510.31
2023-03-05T11:58:12.326Z,97502.03
2023-03-05T11:59:17.828Z,97511.56
2023-03-05T12:00:22.479Z,97508.09
2023-03-05T12:01:25.415Z,97499.19
2023-03-05T12:02:28.265Z,97495.97
2023-03-05T12:03:32.645Z,97501.22
2023-03-05T12:04:34.303Z,97502.03
2023-03-05T12:05:37.163Z,97499.53
2023-03-05T12:06:40.941Z,97498.16
2023-03-05T12:07:45.204Z,97495.88
2023-03-05T12:08:49.527Z,97491.28
2023-03-05T12:09:52.789Z,97479.88
2023-03-05T12:10:54.568Z,97478.22
2023-03-05T12:11:59.470Z,97473.53
2023-03-05T12:13:04.790Z,97483.59
2023-03-05T12:14:10.342Z,97481.91
2023-03-05T12:15:47.742Z,97480.25
2023-03-05T12:16:51.509Z,97487.69
2023-03-05T12:17:59.165Z,97482.31
2023-03-05T12:19:10.006Z,97483.16
2023-03-05T12:20:12.876Z,97477.69
2023-03-05T12:21:17.650Z,97482.56
2023-03-05T12:22:21.168Z,97477.50
2023-03-05T12:23:22.951Z,97475.91
2023-03-05T12:24:36.706Z,97477.59
2023-03-05T12:25:46.338Z,97475.78